Saint George Island, AK

12:36 AM AKST on December 09, 2016 (GMT -0900)
Saint George | | Change Station

Elev 125 ft 56.58 °N, 169.66 °W | Updated 43 minutes ago

Snow
Snow
26 °F
Feels Like 14 °F
N
15
Wind Variable Wind from NW

Today
High -- | Low -- °F
--% Chance of Precip.
Yesterday
High -- | Low -- °F
Precip. -- in
Pressure 30.14 in
Visibility 9.0 miles
Clouds Mostly Cloudy 3400 ft
Overcast 4500 ft
Windchill 14 °F
Dew Point 19 °F
Humidity 75%
Rainfall 0.00 in
Snow Depth Not available.
10:42 AM 5:40 PM
Waxing Gibbous, 72% visible
METAR PAPB 090853Z AUTO 32013KT 9SM -SN BKN034 OVC045 M03/M07 A3018 RMK AO2 SNB02 SLP207 P0000 60000 T10331072 410281044 58009 TSNO
Pressure 30.14 in
Visibility 9.0 miles
Clouds Mostly Cloudy 3400 ft
Overcast 4500 ft
Windchill 14 °F
Dew Point 19 °F
Humidity 75%
Rainfall 0.00 in
Snow Depth Not available.
10:42 AM 5:40 PM
Waxing Gibbous, 72% visible
METAR PAPB 090853Z AUTO 32013KT 9SM -SN BKN034 OVC045 M03/M07 A3018 RMK AO2 SNB02 SLP207 P0000 60000 T10331072 410281044 58009 TSNO

10-Day Weather Forecast

Almanac

Astronomy

Dec. 09, 2016 Rise Set
Actual Time
Civil Twilight
Nautical Twilight
Astronomical Twilight
Moon
Length of Visible Light
Length of Day
Tomorrow will be .
, % of the Moon is Illuminated

Today's Extremes

State Highs State Lows

Community

WunderPhotos

Upload Photos

1,956,371 photos uploaded!

WunderBlog® & News

Nearby

Air Quality

  Air Quality AQ Index Pollutant
Not available.

Snow Depth

Station Depth Elevation

Earthquake Activity

City Distance Mag. Time & Date
Minimum magnitude displayed is 2.5.

Coastal Water Temperatures

Place Temperature

Stations

Nearby Weather Stations

Station Location Temp. Windchill Dew Point Humidity Wind Precip. Elev Updated Type
                   

Watches & Warnings

There are currently no watches in effect.